Time;durP1;ratioP1;P1;durP2;ratioP2;P2;SDS_P1;SDS_P2;PMS_P1;PMS_P2;Temp;Humidity;BMP_temperature;BMP_pressure;BME280_temperature;BME280_humidity;BME280_pressure;Samples;Min_cycle;Max_cycle;Signal;HPM_P1;HPM_P2
2021/04/07 00:02:11;;;;;;;10.25;2.85;;;;;;;;;;5090037;28;20416;-65
2021/04/07 00:04:37;;;;;;;7.85;2.42;;;;;;;;;;5091528;28;20028;-65
2021/04/07 00:07:03;;;;;;;8.90;2.63;;;;;;;;;;5072854;28;20388;-65
2021/04/07 00:09:29;;;;;;;7.15;2.30;;;;;;;;;;5092673;28;20025;-65
2021/04/07 00:11:54;;;;;;;7.63;2.40;;;;;;;;;;5110874;28;20032;-65
2021/04/07 00:14:20;;;;;;;8.35;2.30;;;;;;;;;;5112021;28;20035;-65
2021/04/07 00:16:46;;;;;;;6.10;2.25;;;;;;;;;;5092371;28;20028;-65
2021/04/07 00:19:11;;;;;;;15.68;3.30;;;;;;;;;;5111649;28;20031;-65
2021/04/07 00:21:36;;;;;;;12.40;2.28;;;;;;;;;;5111264;28;20122;-65
2021/04/07 00:24:02;;;;;;;6.45;2.38;;;;;;;;;;5111778;28;20383;-65
2021/04/07 00:26:27;;;;;;;8.40;2.22;;;;;;;;;;5095409;28;20079;-65
2021/04/07 00:28:53;;;;;;;6.22;2.15;;;;;;;;;;5090588;28;20032;-65
2021/04/07 00:31:18;;;;;;;5.55;2.45;;;;;;;;;;5099295;28;20062;-65
2021/04/07 00:33:43;;;;;;;6.75;2.08;;;;;;;;;;5111093;28;20168;-65
2021/04/07 00:36:09;;;;;;;11.63;2.25;;;;;;;;;;5111279;28;20432;-65
2021/04/07 00:38:34;;;;;;;9.15;2.33;;;;;;;;;;5111019;28;20051;-65
2021/04/07 00:41:00;;;;;;;12.05;2.42;;;;;;;;;;5110907;28;20104;-65
2021/04/07 00:43:25;;;;;;;10.13;2.58;;;;;;;;;;5110444;28;20085;-65
2021/04/07 00:45:50;;;;;;;6.88;2.50;;;;;;;;;;5110551;28;20079;-65
2021/04/07 00:48:17;;;;;;;7.68;2.17;;;;;;;;;;5092771;28;20035;-65
2021/04/07 00:50:42;;;;;;;9.20;2.20;;;;;;;;;;5111078;28;20035;-65
2021/04/07 00:53:08;;;;;;;8.05;2.28;;;;;;;;;;5110329;28;20161;-65
2021/04/07 00:55:35;;;;;;;8.75;2.20;;;;;;;;;;5110373;28;20046;-65
2021/04/07 00:58:01;;;;;;;9.27;2.60;;;;;;;;;;5110839;28;20035;-65
2021/04/07 01:00:27;;;;;;;7.50;2.40;;;;;;;;;;5111114;28;20145;-65
2021/04/07 01:02:54;;;;;;;6.97;2.45;;;;;;;;;;5110011;28;20114;-65
2021/04/07 01:05:19;;;;;;;7.38;2.78;;;;;;;;;;5092187;28;20054;-65
2021/04/07 01:07:45;;;;;;;9.38;2.72;;;;;;;;;;5110267;28;20019;-65
2021/04/07 01:10:11;;;;;;;6.72;2.92;;;;;;;;;;5110606;28;20035;-65
2021/04/07 01:12:39;;;;;;;8.35;3.13;;;;;;;;;;5110396;28;20035;-65
2021/04/07 01:15:06;;;;;;;11.05;3.35;;;;;;;;;;5110594;28;20015;-65
2021/04/07 01:17:32;;;;;;;8.85;2.50;;;;;;;;;;5091726;28;20096;-65
2021/04/07 01:19:57;;;;;;;10.18;2.60;;;;;;;;;;5110627;28;20144;-64
2021/04/07 01:22:24;;;;;;;10.52;2.50;;;;;;;;;;5110062;28;20051;-65
2021/04/07 01:24:50;;;;;;;7.65;2.50;;;;;;;;;;5109989;28;20027;-65
2021/04/07 01:27:16;;;;;;;8.90;2.47;;;;;;;;;;5110252;28;20482;-65
2021/04/07 01:29:42;;;;;;;7.72;2.30;;;;;;;;;;5091039;28;20024;-65
2021/04/07 01:32:08;;;;;;;8.38;2.80;;;;;;;;;;5110355;28;20031;-65
2021/04/07 01:34:34;;;;;;;7.30;2.35;;;;;;;;;;5091163;28;20039;-64
2021/04/07 01:37:02;;;;;;;6.63;2.70;;;;;;;;;;5109943;28;20127;-65
2021/04/07 01:39:29;;;;;;;7.60;2.65;;;;;;;;;;5109802;28;20652;-64
2021/04/07 01:41:55;;;;;;;10.70;2.53;;;;;;;;;;5110362;28;20043;-64
2021/04/07 01:44:22;;;;;;;10.45;2.42;;;;;;;;;;5109439;28;20027;-65
2021/04/07 01:46:48;;;;;;;9.38;2.10;;;;;;;;;;5109665;28;20043;-65
2021/04/07 01:49:13;;;;;;;9.55;2.40;;;;;;;;;;5091688;28;20385;-64
2021/04/07 01:51:39;;;;;;;12.37;3.00;;;;;;;;;;5110074;28;20531;-65
2021/04/07 01:54:05;;;;;;;6.68;2.28;;;;;;;;;;5109883;28;20083;-65
2021/04/07 01:56:31;;;;;;;9.30;2.30;;;;;;;;;;5109525;28;20042;-65
2021/04/07 01:59:00;;;;;;;10.73;3.10;;;;;;;;;;5109639;28;20041;-64
2021/04/07 02:01:26;;;;;;;8.23;2.67;;;;;;;;;;5109550;28;20028;-65
2021/04/07 02:03:51;;;;;;;7.40;2.10;;;;;;;;;;5109357;28;20042;-65
2021/04/07 02:06:16;;;;;;;7.13;2.17;;;;;;;;;;5109207;28;20046;-64
2021/04/07 02:08:42;;;;;;;8.23;2.10;;;;;;;;;;5109904;28;20038;-65
2021/04/07 02:11:07;;;;;;;8.20;2.10;;;;;;;;;;5109871;28;20466;-64
2021/04/07 02:13:32;;;;;;;8.30;2.03;;;;;;;;;;5109699;28;20151;-65
2021/04/07 02:15:58;;;;;;;7.87;2.13;;;;;;;;;;5108803;28;20043;-64
2021/04/07 02:18:23;;;;;;;8.33;1.80;;;;;;;;;;5109671;28;20450;-64
2021/04/07 02:20:48;;;;;;;5.37;2.10;;;;;;;;;;5110305;28;20027;-65
2021/04/07 02:23:13;;;;;;;7.47;2.40;;;;;;;;;;5109449;28;20035;-64
2021/04/07 02:25:39;;;;;;;5.33;2.00;;;;;;;;;;5108664;28;20058;-64
2021/04/07 02:28:04;;;;;;;4.73;2.00;;;;;;;;;;5109630;28;20016;-65
2021/04/07 02:30:29;;;;;;;10.37;2.30;;;;;;;;;;5109594;28;20479;-64
2021/04/07 02:32:55;;;;;;;5.27;2.20;;;;;;;;;;5109621;28;20072;-64
2021/04/07 02:35:20;;;;;;;13.60;2.43;;;;;;;;;;5109136;28;20073;-64
2021/04/07 02:37:45;;;;;;;5.03;1.87;;;;;;;;;;5109019;28;20114;-65
2021/04/07 02:40:11;;;;;;;10.77;2.27;;;;;;;;;;5110677;28;20051;-65
2021/04/07 02:42:36;;;;;;;12.30;2.53;;;;;;;;;;5113517;28;20066;-64
2021/04/07 02:45:01;;;;;;;8.90;2.17;;;;;;;;;;5113250;28;20429;-64
2021/04/07 02:47:26;;;;;;;6.77;2.33;;;;;;;;;;5112955;28;20031;-65
2021/04/07 02:49:52;;;;;;;7.73;2.27;;;;;;;;;;5113504;28;20435;-64
2021/04/07 02:52:18;;;;;;;6.20;2.10;;;;;;;;;;5082529;28;20043;-64
2021/04/07 02:54:43;;;;;;;5.90;2.67;;;;;;;;;;5092944;28;20047;-64
2021/04/07 02:57:08;;;;;;;5.60;2.60;;;;;;;;;;5091786;28;20016;-65
2021/04/07 02:59:34;;;;;;;7.70;2.90;;;;;;;;;;5092983;28;20039;-64
2021/04/07 03:01:59;;;;;;;5.53;2.20;;;;;;;;;;5091856;28;20427;-64
2021/04/07 03:04:24;;;;;;;6.07;2.27;;;;;;;;;;5092607;28;20078;-64
2021/04/07 03:06:50;;;;;;;6.93;2.20;;;;;;;;;;5091858;28;20120;-65
2021/04/07 03:09:15;;;;;;;5.47;2.37;;;;;;;;;;5092429;28;20110;-64
2021/04/07 03:11:40;;;;;;;10.73;1.93;;;;;;;;;;5108006;28;20022;-64
2021/04/07 03:14:06;;;;;;;8.10;1.97;;;;;;;;;;5093018;28;20036;-65
2021/04/07 03:16:32;;;;;;;5.60;2.07;;;;;;;;;;5091903;28;20078;-64
2021/04/07 03:18:57;;;;;;;6.17;1.97;;;;;;;;;;5092063;28;20031;-65
2021/04/07 03:21:22;;;;;;;9.60;2.03;;;;;;;;;;5092476;28;20036;-64
2021/04/07 03:23:47;;;;;;;5.80;2.23;;;;;;;;;;5093981;28;20038;-65
2021/04/07 03:26:13;;;;;;;12.70;2.17;;;;;;;;;;5091569;28;20028;-65
2021/04/07 03:28:38;;;;;;;7.13;2.30;;;;;;;;;;5091957;28;20119;-65
2021/04/07 03:31:03;;;;;;;9.63;2.40;;;;;;;;;;5092014;28;20403;-64
2021/04/07 03:33:31;;;;;;;10.60;2.00;;;;;;;;;;5092240;28;20099;-65
2021/04/07 03:35:57;;;;;;;4.17;2.03;;;;;;;;;;5091917;28;20036;-64
2021/04/07 03:38:22;;;;;;;13.67;2.30;;;;;;;;;;5091490;28;20113;-65
2021/04/07 03:40:48;;;;;;;4.47;2.20;;;;;;;;;;5092256;28;20016;-65
2021/04/07 03:43:14;;;;;;;6.80;1.70;;;;;;;;;;5091936;28;20039;-65
2021/04/07 03:45:43;;;;;;;8.87;2.37;;;;;;;;;;5073224;28;20044;-64
2021/04/07 03:48:10;;;;;;;6.47;2.20;;;;;;;;;;5091051;28;20515;-64
2021/04/07 03:50:35;;;;;;;11.07;2.20;;;;;;;;;;5091800;28;20111;-64
2021/04/07 03:53:00;;;;;;;8.13;2.30;;;;;;;;;;5090988;28;20118;-64
2021/04/07 03:55:26;;;;;;;9.67;2.70;;;;;;;;;;5092174;28;20026;-65
2021/04/07 03:57:51;;;;;;;6.83;2.70;;;;;;;;;;5091425;28;20475;-64
2021/04/07 04:00:17;;;;;;;5.27;2.20;;;;;;;;;;5091464;28;20499;-64
2021/04/07 04:02:42;;;;;;;7.53;2.33;;;;;;;;;;5091618;28;20028;-65
2021/04/07 04:05:08;;;;;;;7.13;2.13;;;;;;;;;;5091757;28;20040;-65
2021/04/07 04:07:33;;;;;;;10.70;2.30;;;;;;;;;;5090736;28;20036;-64
2021/04/07 04:09:58;;;;;;;7.53;1.90;;;;;;;;;;5095877;28;20108;-65
2021/04/07 04:12:24;;;;;;;7.13;2.47;;;;;;;;;;5111185;28;20059;-65
2021/04/07 04:14:49;;;;;;;12.27;2.17;;;;;;;;;;5094691;28;20044;-64
2021/04/07 04:17:14;;;;;;;8.00;2.07;;;;;;;;;;5094774;28;20020;-64
2021/04/07 04:19:40;;;;;;;7.17;2.00;;;;;;;;;;5094245;28;20071;-64
2021/04/07 04:22:05;;;;;;;9.93;2.07;;;;;;;;;;5094361;28;20124;-64
2021/04/07 04:24:31;;;;;;;7.87;2.53;;;;;;;;;;5110986;28;20016;-64
2021/04/07 04:26:56;;;;;;;4.70;2.13;;;;;;;;;;5114534;28;20043;-64
2021/04/07 04:29:21;;;;;;;7.63;2.37;;;;;;;;;;5114128;28;20411;-64
2021/04/07 04:31:47;;;;;;;7.10;2.00;;;;;;;;;;5114737;28;20106;-64
2021/04/07 04:34:12;;;;;;;11.60;2.17;;;;;;;;;;5114457;28;20460;-64
2021/04/07 04:36:37;;;;;;;8.67;1.90;;;;;;;;;;5096222;28;20498;-64
2021/04/07 04:39:03;;;;;;;7.73;2.13;;;;;;;;;;5113682;28;20050;-65
2021/04/07 04:41:28;;;;;;;7.83;2.03;;;;;;;;;;5113798;28;20066;-64
2021/04/07 04:43:53;;;;;;;9.80;2.23;;;;;;;;;;5114336;28;20035;-65
2021/04/07 04:46:18;;;;;;;8.17;2.10;;;;;;;;;;5114373;28;20088;-64
2021/04/07 04:48:44;;;;;;;8.77;2.67;;;;;;;;;;5113879;28;20032;-65
2021/04/07 04:51:09;;;;;;;9.17;2.10;;;;;;;;;;5113998;28;20046;-64
2021/04/07 04:53:34;;;;;;;8.50;2.10;;;;;;;;;;5114044;28;20501;-65
2021/04/07 04:55:59;;;;;;;6.00;1.90;;;;;;;;;;5114644;28;20031;-64
2021/04/07 04:58:25;;;;;;;7.67;2.30;;;;;;;;;;5114113;28;20104;-64
2021/04/07 05:00:50;;;;;;;6.77;2.13;;;;;;;;;;5113581;28;20011;-65
2021/04/07 05:03:15;;;;;;;6.87;2.10;;;;;;;;;;5113803;28;20059;-64
2021/04/07 05:05:40;;;;;;;8.68;2.35;;;;;;;;;;5113809;28;20050;-64
2021/04/07 05:08:06;;;;;;;9.07;2.13;;;;;;;;;;5113525;28;20011;-64
2021/04/07 05:10:31;;;;;;;9.37;2.17;;;;;;;;;;5114008;28;20077;-64
2021/04/07 05:12:56;;;;;;;12.10;2.17;;;;;;;;;;5113891;28;20031;-65
2021/04/07 05:15:22;;;;;;;6.25;2.55;;;;;;;;;;5113409;28;20026;-65
2021/04/07 05:17:49;;;;;;;5.20;1.80;;;;;;;;;;5113460;28;20042;-64
2021/04/07 05:20:14;;;;;;;4.88;1.73;;;;;;;;;;5113279;28;20140;-65
2021/04/07 05:22:39;;;;;;;4.88;1.98;;;;;;;;;;5112701;28;20408;-64
2021/04/07 05:25:05;;;;;;;6.10;2.35;;;;;;;;;;5093237;28;20423;-65
2021/04/07 05:27:30;;;;;;;6.47;1.90;;;;;;;;;;5093140;28;20042;-65
2021/04/07 05:29:55;;;;;;;7.68;2.00;;;;;;;;;;5093065;28;20099;-65
2021/04/07 05:32:21;;;;;;;6.32;1.85;;;;;;;;;;5092898;28;20081;-65
2021/04/07 05:34:46;;;;;;;3.78;1.73;;;;;;;;;;5092855;28;20038;-65
2021/04/07 05:37:11;;;;;;;4.65;1.85;;;;;;;;;;5092804;28;20012;-64
2021/04/07 05:39:37;;;;;;;10.05;2.05;;;;;;;;;;5092917;28;20101;-65
2021/04/07 05:42:02;;;;;;;6.63;1.90;;;;;;;;;;5092547;28;20036;-65
2021/04/07 05:44:27;;;;;;;6.30;2.20;;;;;;;;;;5092853;28;20020;-65
2021/04/07 05:46:53;;;;;;;12.13;2.15;;;;;;;;;;5092622;28;20077;-65
2021/04/07 05:49:18;;;;;;;7.53;2.42;;;;;;;;;;5092884;28;20047;-65
2021/04/07 05:51:43;;;;;;;11.13;2.00;;;;;;;;;;5110346;28;20024;-65
2021/04/07 05:54:09;;;;;;;10.00;2.33;;;;;;;;;;5113063;28;20027;-65
2021/04/07 05:56:34;;;;;;;9.88;2.47;;;;;;;;;;5113140;28;20490;-65
2021/04/07 05:59:00;;;;;;;8.80;1.90;;;;;;;;;;5113088;28;20011;-65
2021/04/07 06:01:25;;;;;;;7.53;2.15;;;;;;;;;;5112627;28;20433;-65
2021/04/07 06:03:51;;;;;;;6.53;1.85;;;;;;;;;;5112911;28;20059;-65
2021/04/07 06:06:16;;;;;;;7.53;2.03;;;;;;;;;;5096350;28;20063;-65
2021/04/07 06:08:41;;;;;;;7.95;1.88;;;;;;;;;;5092515;28;20032;-65
2021/04/07 06:11:06;;;;;;;7.10;1.80;;;;;;;;;;5092700;28;20058;-64
2021/04/07 06:13:32;;;;;;;5.82;2.00;;;;;;;;;;5092348;28;20016;-65
2021/04/07 06:15:57;;;;;;;9.35;1.73;;;;;;;;;;5094765;28;20516;-65
2021/04/07 06:18:22;;;;;;;7.38;2.65;;;;;;;;;;5096747;28;20163;-65
2021/04/07 06:20:48;;;;;;;6.00;1.95;;;;;;;;;;5096404;28;20383;-65
2021/04/07 06:23:14;;;;;;;15.55;2.88;;;;;;;;;;5101867;28;20083;-64
2021/04/07 06:25:40;;;;;;;9.82;2.30;;;;;;;;;;5116890;28;20122;-65
2021/04/07 06:28:06;;;;;;;5.95;2.28;;;;;;;;;;5117029;28;20012;-64
2021/04/07 06:30:42;;;;;;;4.97;1.88;;;;;;;;;;5117051;28;20020;-65
2021/04/07 06:33:09;;;;;;;13.10;2.85;;;;;;;;;;5116423;28;20034;-65
2021/04/07 06:35:34;;;;;;;5.88;2.17;;;;;;;;;;5116965;28;20384;-65
2021/04/07 06:37:59;;;;;;;6.28;1.58;;;;;;;;;;5116622;28;20156;-65
2021/04/07 06:40:25;;;;;;;12.93;2.60;;;;;;;;;;5117176;28;20071;-65
2021/04/07 06:42:50;;;;;;;12.82;2.75;;;;;;;;;;5116267;28;20073;-65
2021/04/07 06:45:16;;;;;;;5.28;1.70;;;;;;;;;;5116675;28;20032;-65
2021/04/07 06:47:41;;;;;;;6.43;1.95;;;;;;;;;;5116825;28;20356;-65
2021/04/07 06:50:06;;;;;;;8.68;2.33;;;;;;;;;;5116691;28;20454;-65
2021/04/07 06:52:32;;;;;;;9.35;2.42;;;;;;;;;;5116472;28;20059;-65
2021/04/07 06:54:57;;;;;;;10.93;2.42;;;;;;;;;;5110744;28;20019;-65
2021/04/07 06:57:22;;;;;;;7.78;2.20;;;;;;;;;;5085864;28;20025;-65
2021/04/07 06:59:49;;;;;;;4.32;1.85;;;;;;;;;;5075316;28;20041;-65
2021/04/07 07:02:14;;;;;;;6.85;2.25;;;;;;;;;;5075627;28;20013;-65
2021/04/07 07:04:40;;;;;;;13.95;2.17;;;;;;;;;;5075191;28;20409;-65
2021/04/07 07:07:06;;;;;;;5.43;2.13;;;;;;;;;;5086848;28;20067;-65
2021/04/07 07:09:31;;;;;;;9.90;2.88;;;;;;;;;;5075573;28;20016;-65
2021/04/07 07:11:57;;;;;;;9.50;1.95;;;;;;;;;;5075466;28;20028;-65
2021/04/07 07:14:23;;;;;;;5.72;1.90;;;;;;;;;;5074941;28;20036;-65
2021/04/07 07:16:49;;;;;;;11.88;2.35;;;;;;;;;;5075237;28;20023;-65
2021/04/07 07:19:24;;;;;;;7.47;2.45;;;;;;;;;;5075710;28;20031;-65
2021/04/07 07:21:53;;;;;;;10.05;1.85;;;;;;;;;;5075477;28;20036;-65
2021/04/07 07:24:35;;;;;;;5.53;1.98;;;;;;;;;;5104369;28;20467;-65
2021/04/07 07:27:01;;;;;;;9.68;1.95;;;;;;;;;;5114824;28;20045;-65
2021/04/07 07:29:27;;;;;;;7.75;2.15;;;;;;;;;;5115812;28;20027;-65
2021/04/07 07:32:01;;;;;;;5.97;1.83;;;;;;;;;;5115684;28;20377;-65
2021/04/07 07:34:26;;;;;;;5.55;2.50;;;;;;;;;;5114964;28;20015;-66
2021/04/07 07:36:52;;;;;;;3.33;1.63;;;;;;;;;;5115057;28;20031;-66
2021/04/07 07:39:24;;;;;;;11.35;2.33;;;;;;;;;;5115002;28;20071;-65
2021/04/07 07:41:51;;;;;;;4.95;1.73;;;;;;;;;;5115009;28;20016;-66
2021/04/07 07:44:17;;;;;;;4.63;2.13;;;;;;;;;;5114894;28;20035;-65
2021/04/07 07:46:42;;;;;;;7.22;1.80;;;;;;;;;;5114480;28;20047;-66
2021/04/07 07:49:16;;;;;;;4.85;1.95;;;;;;;;;;5083025;28;20099;-66
2021/04/07 07:51:45;;;;;;;8.00;2.05;;;;;;;;;;5083644;28;20111;-66
2021/04/07 07:54:14;;;;;;;8.27;1.73;;;;;;;;;;5086786;28;20024;-66
2021/04/07 07:56:39;;;;;;;7.55;2.03;;;;;;;;;;5105528;28;20028;-66
2021/04/07 07:59:05;;;;;;;7.15;1.73;;;;;;;;;;5086244;28;20081;-66
2021/04/07 08:01:40;;;;;;;8.15;1.50;;;;;;;;;;5085168;28;20459;-66
2021/04/07 08:04:05;;;;;;;4.10;1.70;;;;;;;;;;5081228;28;20024;-66
2021/04/07 08:06:30;;;;;;;6.97;1.90;;;;;;;;;;5073479;28;20777;-66
2021/04/07 08:08:56;;;;;;;5.65;1.77;;;;;;;;;;5087958;28;20449;-66
2021/04/07 08:11:23;;;;;;;11.93;1.67;;;;;;;;;;5072187;28;20509;-66
2021/04/07 08:13:48;;;;;;;7.38;2.10;;;;;;;;;;5083888;28;20028;-66
2021/04/07 08:16:19;;;;;;;5.35;1.40;;;;;;;;;;5088055;28;20709;-66
2021/04/07 08:18:45;;;;;;;12.30;2.28;;;;;;;;;;5088095;28;20036;-66
2021/04/07 08:21:12;;;;;;;9.30;2.67;;;;;;;;;;5077136;28;20907;-66
2021/04/07 08:23:40;;;;;;;4.15;2.03;;;;;;;;;;5081933;28;20047;-66
2021/04/07 08:26:05;;;;;;;9.60;2.47;;;;;;;;;;5082415;28;20097;-66
2021/04/07 08:28:31;;;;;;;8.40;2.10;;;;;;;;;;5080833;28;20036;-66
2021/04/07 08:30:56;;;;;;;7.13;2.33;;;;;;;;;;5083895;28;20478;-66
2021/04/07 08:33:22;;;;;;;8.88;1.98;;;;;;;;;;5081020;28;20028;-66
2021/04/07 08:35:51;;;;;;;14.73;2.30;;;;;;;;;;5085069;28;20032;-66
2021/04/07 08:38:16;;;;;;;9.77;2.10;;;;;;;;;;5090343;28;20027;-66
2021/04/07 08:40:47;;;;;;;6.00;1.67;;;;;;;;;;5088343;28;20035;-66
2021/04/07 08:43:13;;;;;;;13.15;2.47;;;;;;;;;;5085210;28;20032;-66
2021/04/07 08:45:44;;;;;;;6.18;2.00;;;;;;;;;;5084969;28;20042;-67
2021/04/07 08:48:18;;;;;;;5.88;1.73;;;;;;;;;;5084228;28;20455;-66
2021/04/07 08:50:44;;;;;;;9.23;2.25;;;;;;;;;;5084971;28;20038;-66
2021/04/07 08:53:13;;;;;;;5.38;2.10;;;;;;;;;;5086869;28;20036;-66
2021/04/07 08:55:40;;;;;;;11.85;2.03;;;;;;;;;;5090676;28;20031;-66
2021/04/07 08:58:06;;;;;;;7.00;2.08;;;;;;;;;;5072387;28;20418;-66
2021/04/07 09:00:36;;;;;;;8.80;2.20;;;;;;;;;;5090153;28;20104;-66
2021/04/07 09:03:09;;;;;;;8.02;2.10;;;;;;;;;;5072002;28;20449;-66
2021/04/07 09:05:36;;;;;;;6.55;1.77;;;;;;;;;;5061965;28;20151;-66
2021/04/07 09:08:01;;;;;;;7.40;2.30;;;;;;;;;;5089759;28;20016;-66
2021/04/07 09:10:37;;;;;;;5.97;2.20;;;;;;;;;;5080640;28;20085;-66
2021/04/07 09:13:06;;;;;;;11.32;3.88;;;;;;;;;;5090205;28;20064;-66
2021/04/07 09:15:31;;;;;;;17.13;7.40;;;;;;;;;;5089463;28;20028;-66
2021/04/07 09:17:57;;;;;;;15.30;6.25;;;;;;;;;;5081217;28;20028;-66
2021/04/07 09:20:34;;;;;;;14.80;3.70;;;;;;;;;;5083850;28;20039;-66
2021/04/07 09:23:10;;;;;;;9.18;3.47;;;;;;;;;;5089973;28;20023;-66
2021/04/07 09:25:36;;;;;;;9.35;1.63;;;;;;;;;;5089929;28;20048;-66
2021/04/07 09:28:02;;;;;;;9.10;2.67;;;;;;;;;;5089924;28;20118;-66
2021/04/07 09:30:37;;;;;;;7.70;1.98;;;;;;;;;;5090352;28;20040;-66
2021/04/07 09:33:02;;;;;;;9.25;1.58;;;;;;;;;;5078785;28;20028;-66
2021/04/07 09:35:27;;;;;;;5.55;1.70;;;;;;;;;;5070112;28;20035;-66
2021/04/07 09:37:53;;;;;;;7.57;1.95;;;;;;;;;;5070601;28;20067;-66
2021/04/07 09:40:18;;;;;;;9.73;2.05;;;;;;;;;;5069001;28;20079;-67
2021/04/07 09:42:43;;;;;;;8.02;1.75;;;;;;;;;;5069187;28;20048;-66
2021/04/07 09:45:09;;;;;;;7.03;1.70;;;;;;;;;;5069860;28;20028;-66
2021/04/07 09:47:34;;;;;;;7.40;1.90;;;;;;;;;;5075086;28;20039;-66
2021/04/07 09:50:09;;;;;;;3.45;1.23;;;;;;;;;;5075659;28;20044;-66
2021/04/07 09:52:38;;;;;;;12.27;2.03;;;;;;;;;;5070424;28;20025;-66
2021/04/07 09:55:04;;;;;;;4.25;1.25;;;;;;;;;;5070170;28;20040;-66
2021/04/07 09:57:29;;;;;;;5.10;1.30;;;;;;;;;;5073774;28;20019;-66
2021/04/07 09:59:55;;;;;;;4.28;1.40;;;;;;;;;;5082167;28;20036;-66
2021/04/07 10:02:23;;;;;;;5.78;1.98;;;;;;;;;;5073774;28;20038;-66
2021/04/07 10:04:48;;;;;;;3.17;0.98;;;;;;;;;;5089567;28;20024;-66
2021/04/07 10:07:15;;;;;;;6.68;1.65;;;;;;;;;;5089715;28;20074;-66
2021/04/07 10:09:41;;;;;;;8.50;1.55;;;;;;;;;;5089438;28;20036;-66
2021/04/07 10:12:07;;;;;;;10.90;1.60;;;;;;;;;;5089979;28;20030;-66
2021/04/07 10:14:33;;;;;;;8.10;1.55;;;;;;;;;;5107886;28;20441;-66
2021/04/07 10:17:09;;;;;;;6.57;1.30;;;;;;;;;;5110512;28;20035;-66
2021/04/07 10:19:35;;;;;;;5.70;1.15;;;;;;;;;;5109491;28;20036;-66
2021/04/07 10:22:00;;;;;;;4.65;1.23;;;;;;;;;;5109113;28;20036;-66
2021/04/07 10:24:26;;;;;;;5.07;1.52;;;;;;;;;;5109605;28;20027;-66
2021/04/07 10:26:51;;;;;;;8.93;1.30;;;;;;;;;;5082495;28;20080;-66
2021/04/07 10:29:21;;;;;;;4.38;0.98;;;;;;;;;;5068907;28;20058;-66
2021/04/07 10:31:56;;;;;;;4.53;1.23;;;;;;;;;;5087719;28;20020;-66
2021/04/07 10:34:28;;;;;;;7.13;1.10;;;;;;;;;;5081958;28;20131;-66
2021/04/07 10:36:54;;;;;;;4.18;1.17;;;;;;;;;;5083925;28;20036;-66
2021/04/07 10:39:20;;;;;;;3.70;1.17;;;;;;;;;;5096677;28;20101;-66
2021/04/07 10:41:49;;;;;;;7.88;1.10;;;;;;;;;;5089451;28;20531;-66
2021/04/07 10:44:28;;;;;;;4.38;1.13;;;;;;;;;;5065468;28;20044;-66
2021/04/07 10:46:53;;;;;;;6.57;1.52;;;;;;;;;;5070817;28;20048;-66
2021/04/07 10:49:19;;;;;;;6.75;1.15;;;;;;;;;;5085269;28;20609;-66
2021/04/07 10:51:45;;;;;;;5.57;0.90;;;;;;;;;;5096874;28;20024;-66
2021/04/07 10:54:10;;;;;;;6.70;1.30;;;;;;;;;;5070436;28;20028;-66
2021/04/07 10:56:36;;;;;;;7.40;1.02;;;;;;;;;;5065729;28;20469;-66
2021/04/07 10:59:05;;;;;;;6.47;0.90;;;;;;;;;;5076583;28;20028;-66
2021/04/07 11:01:34;;;;;;;8.05;1.10;;;;;;;;;;5084452;28;20031;-66
2021/04/07 11:04:12;;;;;;;7.55;1.20;;;;;;;;;;5086720;28;20089;-66
2021/04/07 11:06:38;;;;;;;6.82;1.40;;;;;;;;;;5087437;28;20047;-66
2021/04/07 11:09:04;;;;;;;7.43;2.10;;;;;;;;;;5086377;28;20066;-66
2021/04/07 11:11:29;;;;;;;12.88;2.45;;;;;;;;;;5084180;28;20024;-66
2021/04/07 11:13:54;;;;;;;8.40;1.42;;;;;;;;;;5085219;28;20365;-66
2021/04/07 11:16:29;;;;;;;6.05;1.58;;;;;;;;;;5085619;28;20028;-66
2021/04/07 11:18:54;;;;;;;5.75;1.20;;;;;;;;;;5086283;28;20507;-66
2021/04/07 11:21:19;;;;;;;9.68;1.75;;;;;;;;;;5084157;28;20028;-66
2021/04/07 11:23:45;;;;;;;6.63;1.98;;;;;;;;;;5092085;28;20053;-66
2021/04/07 11:26:10;;;;;;;7.53;1.58;;;;;;;;;;5085914;28;20036;-66
2021/04/07 11:28:35;;;;;;;7.07;1.25;;;;;;;;;;5095809;28;20430;-66
2021/04/07 11:31:10;;;;;;;6.45;1.73;;;;;;;;;;5085729;28;20036;-67
2021/04/07 11:36:11;;;;;;;7.68;2.22;;;;;;;;;;5087084;28;20039;-66
2021/04/07 11:38:38;;;;;;;7.82;1.88;;;;;;;;;;5083477;28;20051;-67
2021/04/07 11:44:23;;;;;;;4.57;1.53;;;;;;;;;;5085461;28;20036;-67
2021/04/07 11:46:23;;;;;;;5.13;1.30;;;;;;;;;;5069755;28;20288;-66
2021/04/07 11:48:48;;;;;;;6.43;1.42;;;;;;;;;;5083959;28;20070;-66
2021/04/07 11:51:13;;;;;;;7.25;2.33;;;;;;;;;;5089534;28;20039;-67
2021/04/07 11:53:39;;;;;;;12.25;1.98;;;;;;;;;;5090890;28;20068;-66
2021/04/07 11:56:04;;;;;;;6.78;2.83;;;;;;;;;;5087739;28;20028;-66
2021/04/07 11:58:29;;;;;;;7.47;1.50;;;;;;;;;;5089169;28;20036;-66
2021/04/07 12:00:55;;;;;;;5.05;1.20;;;;;;;;;;5094355;28;20027;-66
2021/04/07 12:03:20;;;;;;;5.97;1.30;;;;;;;;;;5093131;28;20022;-66
2021/04/07 12:05:46;;;;;;;11.10;2.03;;;;;;;;;;5078505;28;20136;-66
2021/04/07 12:08:11;;;;;;;8.38;1.42;;;;;;;;;;5106390;28;20049;-66
2021/04/07 12:10:36;;;;;;;10.95;1.35;;;;;;;;;;5095200;28;20023;-66
2021/04/07 12:13:02;;;;;;;5.68;1.45;;;;;;;;;;5079140;28;20119;-66
2021/04/07 12:15:27;;;;;;;5.97;1.55;;;;;;;;;;5095393;28;20031;-66
2021/04/07 12:17:53;;;;;;;8.38;1.45;;;;;;;;;;5082186;28;20024;-66
2021/04/07 12:20:18;;;;;;;7.95;1.45;;;;;;;;;;5080499;28;20032;-66
2021/04/07 12:22:45;;;;;;;4.82;1.23;;;;;;;;;;5077893;28;20872;-66
2021/04/07 12:25:10;;;;;;;7.07;1.60;;;;;;;;;;5079575;28;20078;-66
2021/04/07 12:27:36;;;;;;;4.28;1.83;;;;;;;;;;5081069;28;20700;-66
2021/04/07 12:30:01;;;;;;;3.78;1.27;;;;;;;;;;5080396;28;20456;-66
2021/04/07 12:32:26;;;;;;;8.95;1.20;;;;;;;;;;5084750;28;20016;-66
2021/04/07 12:34:52;;;;;;;8.20;2.00;;;;;;;;;;5084710;28;20522;-66
2021/04/07 12:37:17;;;;;;;6.82;1.17;;;;;;;;;;5085456;28;20027;-66
2021/04/07 12:39:42;;;;;;;8.45;1.75;;;;;;;;;;5085035;28;20048;-66
2021/04/07 12:42:15;;;;;;;4.43;1.23;;;;;;;;;;5086146;28;20086;-66
2021/04/07 12:44:40;;;;;;;10.02;1.88;;;;;;;;;;5085838;28;20410;-67
2021/04/07 12:47:05;;;;;;;6.05;1.20;;;;;;;;;;5086346;28;20044;-66
2021/04/07 12:49:31;;;;;;;4.72;0.95;;;;;;;;;;5088035;28;20028;-66
2021/04/07 12:51:56;;;;;;;9.30;1.70;;;;;;;;;;5080566;28;20024;-67
2021/04/07 12:54:21;;;;;;;6.65;1.45;;;;;;;;;;5081811;28;20024;-67
2021/04/07 12:56:47;;;;;;;8.18;1.20;;;;;;;;;;5083957;28;20397;-66
2021/04/07 12:59:12;;;;;;;6.05;1.80;;;;;;;;;;5085247;28;20069;-66
2021/04/07 13:01:37;;;;;;;4.32;1.55;;;;;;;;;;5073918;28;20463;-66
2021/04/07 13:04:03;;;;;;;8.32;1.33;;;;;;;;;;5090441;28;20089;-66
2021/04/07 13:06:28;;;;;;;3.55;1.25;;;;;;;;;;5085488;28;20134;-67
2021/04/07 13:08:54;;;;;;;10.05;1.08;;;;;;;;;;5089310;28;20369;-66
2021/04/07 13:11:19;;;;;;;4.88;1.10;;;;;;;;;;5086808;28;21038;-66
2021/04/07 13:13:44;;;;;;;7.40;1.45;;;;;;;;;;5086632;28;20027;-66
2021/04/07 13:16:10;;;;;;;3.70;1.40;;;;;;;;;;5085458;28;20482;-67
2021/04/07 13:18:36;;;;;;;3.28;1.00;;;;;;;;;;5086751;28;20030;-67
2021/04/07 13:21:07;;;;;;;4.47;1.17;;;;;;;;;;5086699;28;20619;-66
2021/04/07 13:23:32;;;;;;;7.93;1.48;;;;;;;;;;5073681;28;20073;-66
2021/04/07 13:25:58;;;;;;;3.55;1.08;;;;;;;;;;5085863;28;20052;-66
2021/04/07 13:28:23;;;;;;;6.25;1.23;;;;;;;;;;5096170;28;20028;-66
2021/04/07 13:30:49;;;;;;;5.15;1.02;;;;;;;;;;5086525;28;20027;-66
2021/04/07 13:33:17;;;;;;;6.28;1.23;;;;;;;;;;5086191;28;20043;-66
2021/04/07 13:35:52;;;;;;;6.32;0.95;;;;;;;;;;5085749;28;20024;-67
2021/04/07 13:43:08;;;;;;;4.78;0.90;;;;;;;;;;5085990;28;20024;-66
2021/04/07 13:45:34;;;;;;;5.93;1.77;;;;;;;;;;5085633;28;20035;-66
2021/04/07 13:50:28;;;;;;;5.45;1.10;;;;;;;;;;5085655;28;20647;-66
2021/04/07 13:52:54;;;;;;;3.20;1.10;;;;;;;;;;5085638;28;20085;-66
2021/04/07 13:55:23;;;;;;;5.15;1.40;;;;;;;;;;5086162;28;20062;-66
2021/04/07 13:57:49;;;;;;;4.28;0.90;;;;;;;;;;5086436;28;20035;-66
2021/04/07 14:00:15;;;;;;;6.95;0.90;;;;;;;;;;5086012;28;20927;-66
2021/04/07 14:02:40;;;;;;;3.97;1.20;;;;;;;;;;5086100;28;20032;-67
2021/04/07 14:05:06;;;;;;;7.05;1.00;;;;;;;;;;5085071;28;20032;-66
2021/04/07 14:07:31;;;;;;;5.47;1.20;;;;;;;;;;5085080;28;20040;-66
2021/04/07 14:09:56;;;;;;;4.13;1.27;;;;;;;;;;5086172;28;20454;-66
2021/04/07 14:12:31;;;;;;;7.18;1.30;;;;;;;;;;5085046;28;20016;-66
2021/04/07 14:14:57;;;;;;;2.70;1.10;;;;;;;;;;5085791;28;20100;-66
2021/04/07 14:17:22;;;;;;;5.88;1.48;;;;;;;;;;5085232;28;20040;-66
2021/04/07 14:19:48;;;;;;;5.47;1.20;;;;;;;;;;5085780;28;20020;-66
2021/04/07 14:22:14;;;;;;;5.10;1.15;;;;;;;;;;5085465;28;20016;-66
2021/04/07 14:24:39;;;;;;;7.38;1.33;;;;;;;;;;5096004;28;20375;-67
2021/04/07 14:27:04;;;;;;;22.08;6.47;;;;;;;;;;5071223;28;20050;-67
2021/04/07 14:29:31;;;;;;;73.88;28.45;;;;;;;;;;5091393;28;20031;-66
2021/04/07 14:31:56;;;;;;;13.57;5.93;;;;;;;;;;5085492;28;20057;-66
2021/04/07 14:34:21;;;;;;;6.13;2.10;;;;;;;;;;5085465;28;20476;-66
2021/04/07 14:36:47;;;;;;;4.75;1.42;;;;;;;;;;5086869;28;20023;-66
2021/04/07 14:39:12;;;;;;;10.80;1.63;;;;;;;;;;5089666;28;20177;-66
2021/04/07 14:41:38;;;;;;;4.47;0.90;;;;;;;;;;5089819;28;20023;-66
2021/04/07 14:44:03;;;;;;;7.30;1.77;;;;;;;;;;5089233;28;20056;-66
2021/04/07 14:46:29;;;;;;;4.80;1.08;;;;;;;;;;5088913;28;20036;-66
2021/04/07 14:48:54;;;;;;;2.53;0.88;;;;;;;;;;5088560;28;20780;-66